Time;durP1;ratioP1;P1;durP2;ratioP2;P2;SDS_P1;SDS_P2;PMS_P1;PMS_P2;Temp;Humidity;BMP_temperature;BMP_pressure;BME280_temperature;BME280_humidity;BME280_pressure;Samples;Min_cycle;Max_cycle;Signal;HPM_P1;HPM_P2
2023/01/08 00:01:14;;;;;;;7.97;4.03;;;;;;;6.19;100.00;95993.38;5053676;28;20531;-41
2023/01/08 00:03:42;;;;;;;7.07;4.28;;;;;;;6.37;100.00;95991.03;5050187;28;20107;-46
2023/01/08 00:06:14;;;;;;;8.82;3.90;;;;;;;6.44;100.00;95992.16;5034348;28;20064;-44
2023/01/08 00:08:42;;;;;;;6.80;3.88;;;;;;;6.47;100.00;95988.44;5055458;28;20120;-46
2023/01/08 00:11:11;;;;;;;8.70;3.90;;;;;;;6.03;100.00;95998.28;5054749;28;20069;-40
2023/01/08 00:13:40;;;;;;;10.00;3.58;;;;;;;6.21;100.00;95982.78;5044437;28;20085;-43
2023/01/08 00:16:13;;;;;;;6.15;3.60;;;;;;;6.35;100.00;95978.03;5045030;28;20461;-43
2023/01/08 00:18:41;;;;;;;6.40;3.78;;;;;;;6.39;100.00;95971.56;5025293;28;20076;-43
2023/01/08 00:21:11;;;;;;;7.32;3.72;;;;;;;6.45;100.00;95969.41;5051224;28;20080;-42
2023/01/08 00:23:40;;;;;;;8.00;4.05;;;;;;;6.49;100.00;95973.41;5028920;28;20527;-45
2023/01/08 00:26:10;;;;;;;7.20;4.60;;;;;;;5.82;100.00;95967.66;5029606;28;20061;-43
2023/01/08 00:28:38;;;;;;;7.30;4.00;;;;;;;5.61;100.00;95966.78;5046576;28;20092;-43
2023/01/08 00:31:09;;;;;;;6.78;3.70;;;;;;;5.74;100.00;95946.53;5047463;28;20134;-45
2023/01/08 00:33:38;;;;;;;8.30;4.10;;;;;;;5.13;100.00;95949.78;5044517;28;20508;-45
2023/01/08 00:36:08;;;;;;;6.20;3.70;;;;;;;4.69;100.00;95945.47;5045517;28;20072;-46
2023/01/08 00:38:37;;;;;;;7.95;3.88;;;;;;;4.73;100.00;95941.66;5045477;28;20073;-46
2023/01/08 00:41:06;;;;;;;6.22;3.95;;;;;;;4.51;100.00;95945.97;5026148;28;20513;-47
2023/01/08 00:43:34;;;;;;;8.20;4.30;;;;;;;4.75;100.00;95939.78;5051002;28;20087;-47
2023/01/08 00:46:03;;;;;;;7.97;3.85;;;;;;;4.72;100.00;95937.41;5032594;28;20075;-42
2023/01/08 00:48:36;;;;;;;6.25;4.32;;;;;;;4.78;100.00;95934.28;5047011;28;20092;-44
2023/01/08 00:51:05;;;;;;;7.93;4.18;;;;;;;5.23;100.00;95932.41;5043682;28;20068;-46
2023/01/08 00:53:34;;;;;;;8.52;4.25;;;;;;;5.76;100.00;95936.78;5041771;28;20084;-45
2023/01/08 00:56:07;;;;;;;7.35;3.88;;;;;;;5.93;100.00;95936.22;5045133;28;20065;-43
2023/01/08 00:58:35;;;;;;;6.53;3.60;;;;;;;5.92;100.00;95931.09;5042555;28;20080;-44
2023/01/08 01:01:09;;;;;;;7.68;4.00;;;;;;;6.06;100.00;95932.59;5042195;28;20075;-42
2023/01/08 01:03:38;;;;;;;7.72;3.60;;;;;;;6.11;100.00;95935.63;5044945;28;20095;-41
2023/01/08 01:06:07;;;;;;;6.57;3.83;;;;;;;6.11;100.00;95935.63;5053585;28;20074;-44
2023/01/08 01:08:35;;;;;;;6.28;3.80;;;;;;;6.17;100.00;95932.50;5049988;28;20107;-44
2023/01/08 01:11:08;;;;;;;6.00;3.85;;;;;;;6.00;100.00;95927.84;5042897;28;20113;-45
2023/01/08 01:13:36;;;;;;;7.68;3.40;;;;;;;5.89;100.00;95926.94;5044800;28;20087;-43
2023/01/08 01:16:05;;;;;;;8.02;3.50;;;;;;;5.71;100.00;95933.69;5047242;28;20394;-42
2023/01/08 01:18:33;;;;;;;8.60;3.70;;;;;;;5.77;100.00;95927.13;5050511;28;20526;-45
2023/01/08 01:21:02;;;;;;;6.88;3.53;;;;;;;5.69;100.00;95927.78;5046505;28;20111;-44
2023/01/08 01:23:30;;;;;;;6.45;3.83;;;;;;;5.74;100.00;95922.97;5047355;28;20096;-43
2023/01/08 01:25:58;;;;;;;6.75;3.38;;;;;;;5.67;100.00;95929.69;5046112;28;20643;-46
2023/01/08 01:28:28;;;;;;;6.28;3.88;;;;;;;5.65;100.00;95931.59;5047867;28;20088;-44
2023/01/08 01:30:57;;;;;;;6.50;3.60;;;;;;;5.59;100.00;95925.09;5043614;28;20144;-46
2023/01/08 01:33:25;;;;;;;7.93;3.80;;;;;;;5.66;100.00;95928.03;5044462;28;20072;-43
2023/01/08 01:36:00;;;;;;;7.63;3.50;;;;;;;5.71;100.00;95931.06;5042468;28;20084;-43
2023/01/08 01:38:29;;;;;;;8.05;3.33;;;;;;;5.64;100.00;95932.53;5045040;28;20084;-44
2023/01/08 01:40:58;;;;;;;6.18;3.53;;;;;;;5.55;100.00;95925.47;5047347;28;20532;-44
2023/01/08 01:43:41;;;;;;;5.20;3.25;;;;;;;5.23;100.00;95919.31;5050287;28;20089;-41
2023/01/08 01:46:18;;;;;;;7.30;3.70;;;;;;;5.32;100.00;95927.34;5044423;28;20091;-42
2023/01/08 01:48:50;;;;;;;7.43;3.75;;;;;;;5.08;100.00;95936.22;5042973;28;20072;-45
2023/01/08 01:51:19;;;;;;;5.75;3.22;;;;;;;5.34;100.00;95934.13;5028913;28;20111;-41
2023/01/08 01:53:48;;;;;;;5.00;2.92;;;;;;;4.96;100.00;95943.28;5044558;28;20108;-47
2023/01/08 01:56:16;;;;;;;5.00;2.67;;;;;;;5.18;100.00;95942.38;5047421;28;20091;-44
2023/01/08 01:58:46;;;;;;;5.32;3.25;;;;;;;4.93;100.00;95938.31;5046206;28;20081;-45
2023/01/08 02:01:14;;;;;;;5.33;3.00;;;;;;;5.17;100.00;95938.13;5043922;28;20077;-43
2023/01/08 02:03:42;;;;;;;7.60;3.08;;;;;;;4.95;100.00;95928.53;5045025;28;20076;-43
2023/01/08 02:06:17;;;;;;;5.47;3.53;;;;;;;5.09;100.00;95918.75;5051914;28;20080;-43
2023/01/08 02:08:52;;;;;;;6.05;3.30;;;;;;;5.22;100.00;95908.97;5045633;28;20084;-42
2023/01/08 02:11:23;;;;;;;5.63;3.08;;;;;;;5.11;100.00;95901.19;5046696;28;20095;-43
2023/01/08 02:13:55;;;;;;;4.93;3.38;;;;;;;4.76;100.00;95904.88;5042259;28;20548;-46
2023/01/08 02:16:27;;;;;;;5.35;3.30;;;;;;;4.48;100.00;95907.06;5043638;28;20084;-41
2023/01/08 02:18:58;;;;;;;6.40;3.45;;;;;;;4.83;100.00;95908.66;5045499;28;20073;-42
2023/01/08 02:21:31;;;;;;;6.60;3.28;;;;;;;5.06;100.00;95904.19;5047259;28;20084;-46
2023/01/08 02:24:03;;;;;;;6.40;3.97;;;;;;;4.36;100.00;95894.13;5043197;28;20092;-42
2023/01/08 02:26:34;;;;;;;6.47;3.40;;;;;;;4.11;100.00;95895.22;5046263;28;20080;-43
2023/01/08 02:29:05;;;;;;;6.00;3.38;;;;;;;4.04;100.00;95895.69;5044408;28;20081;-51
2023/01/08 02:31:35;;;;;;;6.03;3.58;;;;;;;4.62;100.00;95892.09;5045447;28;20134;-43
2023/01/08 02:34:04;;;;;;;5.32;3.08;;;;;;;4.98;100.00;95878.66;5044779;28;20528;-42
2023/01/08 02:36:35;;;;;;;6.15;3.28;;;;;;;4.60;100.00;95870.47;5043884;28;20104;-42
2023/01/08 02:39:34;;;;;;;6.32;3.40;;;;;;;3.84;100.00;95872.09;5045331;28;20085;-43
2023/01/08 02:42:08;;;;;;;6.45;2.85;;;;;;;4.67;100.00;95872.47;5029387;28;20206;-43
2023/01/08 02:44:48;;;;;;;5.80;3.15;;;;;;;5.07;100.00;95863.19;5046612;28;20099;-46
2023/01/08 02:47:23;;;;;;;6.43;2.70;;;;;;;5.14;100.00;95864.34;5044854;28;20091;-45
2023/01/08 02:49:57;;;;;;;6.70;3.42;;;;;;;5.12;100.00;95856.63;5043848;28;20076;-46
2023/01/08 02:52:29;;;;;;;6.80;3.20;;;;;;;5.02;100.00;95854.91;5041362;28;20544;-42
2023/01/08 02:54:59;;;;;;;4.78;2.80;;;;;;;4.99;100.00;95854.22;5044689;28;20156;-43
2023/01/08 02:57:30;;;;;;;6.85;2.63;;;;;;;4.78;100.00;95862.94;5040108;28;20477;-41
2023/01/08 02:59:58;;;;;;;5.53;2.90;;;;;;;4.37;100.00;95877.50;5046745;28;20512;-46
2023/01/08 03:02:30;;;;;;;6.57;3.55;;;;;;;4.50;100.00;95868.59;5044492;28;20081;-45
2023/01/08 03:05:03;;;;;;;6.40;3.33;;;;;;;4.63;100.00;95851.94;5046364;28;20092;-44
2023/01/08 03:07:32;;;;;;;5.70;3.40;;;;;;;4.37;100.00;95861.84;5046397;28;20084;-45
2023/01/08 03:10:00;;;;;;;6.50;2.88;;;;;;;4.62;100.00;95864.19;5044972;28;20072;-44
2023/01/08 03:12:40;;;;;;;5.25;3.20;;;;;;;4.82;100.00;95861.72;5045447;28;20077;-45
2023/01/08 03:15:13;;;;;;;7.18;3.17;;;;;;;4.78;100.00;95857.72;5045870;28;20045;-44
2023/01/08 03:17:49;;;;;;;5.93;2.92;;;;;;;4.90;100.00;95854.13;5046750;28;20593;-49
2023/01/08 03:20:28;;;;;;;5.53;3.70;;;;;;;4.90;100.00;95841.06;5046466;28;20076;-43
2023/01/08 03:22:59;;;;;;;4.03;2.85;;;;;;;4.74;100.00;95846.69;5026331;28;20055;-42
2023/01/08 03:25:28;;;;;;;5.17;3.10;;;;;;;4.97;100.00;95842.22;5045149;28;20551;-47
2023/01/08 03:28:02;;;;;;;6.28;2.67;;;;;;;4.78;100.00;95839.44;5046651;28;20474;-41
2023/01/08 03:30:31;;;;;;;6.00;3.20;;;;;;;4.11;100.00;95843.03;5041272;28;21414;-42
2023/01/08 03:33:00;;;;;;;4.70;2.80;;;;;;;3.79;100.00;95839.38;5046195;28;20095;-45
2023/01/08 03:35:29;;;;;;;5.43;2.60;;;;;;;3.84;100.00;95831.19;5041141;28;20081;-46
2023/01/08 03:38:05;;;;;;;5.60;3.20;;;;;;;4.17;100.00;95832.13;5044828;28;20633;-44
2023/01/08 03:40:37;;;;;;;5.38;2.92;;;;;;;4.29;100.00;95821.53;5043526;28;20099;-48
2023/01/08 03:43:07;;;;;;;5.78;2.75;;;;;;;4.37;100.00;95823.56;5045066;28;20080;-43
2023/01/08 03:45:37;;;;;;;4.30;2.93;;;;;;;4.58;100.00;95833.22;5046645;28;20088;-44
2023/01/08 03:48:06;;;;;;;5.32;3.03;;;;;;;4.87;100.00;95826.47;5039585;28;20080;-44
2023/01/08 03:50:34;;;;;;;3.85;2.25;;;;;;;4.87;100.00;95825.63;5042515;28;20774;-45
2023/01/08 03:53:03;;;;;;;4.78;2.63;;;;;;;4.90;100.00;95814.94;5044659;28;20041;-45
2023/01/08 03:55:31;;;;;;;2.55;1.63;;;;;;;4.76;100.00;95816.06;5040138;28;20076;-43
2023/01/08 03:57:59;;;;;;;5.95;2.80;;;;;;;4.78;100.00;95802.88;5026104;28;20072;-43
2023/01/08 04:00:29;;;;;;;5.80;2.95;;;;;;;4.64;100.00;95796.97;5045890;28;20075;-48
2023/01/08 04:02:58;;;;;;;5.45;3.10;;;;;;;4.45;100.00;95791.59;5040923;28;20099;-41
2023/01/08 04:05:26;;;;;;;5.30;3.08;;;;;;;4.76;100.00;95784.72;5045751;28;20076;-44
2023/01/08 04:07:55;;;;;;;8.02;3.55;;;;;;;4.74;100.00;95779.59;5040550;28;20076;-45
2023/01/08 04:10:24;;;;;;;7.53;3.70;;;;;;;4.88;100.00;95770.63;5044770;28;20091;-44
2023/01/08 04:12:52;;;;;;;5.93;3.38;;;;;;;4.83;100.00;95770.19;5045767;28;20500;-45
2023/01/08 04:15:20;;;;;;;9.85;3.63;;;;;;;4.93;100.00;95773.72;5040720;28;20073;-45
2023/01/08 04:17:50;;;;;;;5.95;3.17;;;;;;;4.96;100.00;95772.63;5041353;28;20081;-41
2023/01/08 04:20:19;;;;;;;5.80;2.90;;;;;;;4.91;100.00;95777.41;5044276;28;20076;-41
2023/01/08 04:22:47;;;;;;;6.10;3.65;;;;;;;4.95;100.00;95776.19;5043399;28;20506;-42
2023/01/08 04:25:15;;;;;;;11.13;4.45;;;;;;;4.94;100.00;95783.19;5043176;28;20501;-42
2023/01/08 04:27:44;;;;;;;0.68;0.68;;;;;;;4.65;100.00;95788.22;5047691;28;20115;-43
2023/01/08 04:30:13;;;;;;;7.80;3.70;;;;;;;4.63;100.00;95790.09;5042365;28;20084;-47
2023/01/08 04:32:41;;;;;;;7.82;3.60;;;;;;;4.66;100.00;95783.81;5045381;28;20080;-44
2023/01/08 04:35:11;;;;;;;5.00;3.13;;;;;;;4.68;100.00;95777.53;5042288;28;20095;-41
2023/01/08 04:37:39;;;;;;;6.82;3.75;;;;;;;4.72;100.00;95778.09;5043053;28;20048;-43
2023/01/08 04:40:09;;;;;;;5.85;3.33;;;;;;;4.76;100.00;95772.47;5043716;28;20052;-45
2023/01/08 04:42:38;;;;;;;6.05;3.90;;;;;;;4.86;100.00;95763.91;5021588;28;20073;-44
2023/01/08 04:45:07;;;;;;;6.68;3.80;;;;;;;4.68;100.00;95759.25;5045508;28;20107;-42
2023/01/08 04:47:35;;;;;;;6.72;3.63;;;;;;;4.51;100.00;95758.00;5042273;28;20290;-44
2023/01/08 04:50:04;;;;;;;6.93;4.07;;;;;;;3.92;100.00;95760.16;5044644;28;20610;-45
2023/01/08 04:52:34;;;;;;;5.60;3.03;;;;;;;4.27;100.00;95757.38;5050255;28;20091;-46
2023/01/08 04:55:03;;;;;;;8.18;3.58;;;;;;;4.36;100.00;95751.41;5048317;28;20071;-45
2023/01/08 04:57:31;;;;;;;8.43;3.60;;;;;;;4.37;100.00;95747.84;5047924;28;20075;-45
2023/01/08 05:00:00;;;;;;;5.68;3.40;;;;;;;4.71;100.00;95738.09;5047695;28;21308;-43
2023/01/08 05:02:28;;;;;;;9.20;4.43;;;;;;;3.89;100.00;95747.34;5051179;28;20087;-44
2023/01/08 05:04:57;;;;;;;7.55;3.85;;;;;;;4.40;100.00;95739.75;5053386;28;20068;-42
2023/01/08 05:07:25;;;;;;;8.25;3.80;;;;;;;4.71;100.00;95738.09;5047299;28;20088;-42
2023/01/08 05:09:55;;;;;;;7.20;3.47;;;;;;;4.89;100.00;95740.97;5049383;28;20077;-50
2023/01/08 05:12:23;;;;;;;7.38;3.83;;;;;;;4.95;100.00;95737.00;5025917;28;20080;-46
2023/01/08 05:14:52;;;;;;;7.20;4.05;;;;;;;4.95;100.00;95748.28;5045206;28;20081;-46
2023/01/08 05:17:20;;;;;;;6.65;3.70;;;;;;;4.80;100.00;95754.78;5046390;28;20079;-45
2023/01/08 05:19:49;;;;;;;6.95;3.28;;;;;;;4.91;100.00;95746.88;5044776;28;20099;-44
2023/01/08 05:22:17;;;;;;;9.63;3.60;;;;;;;4.95;100.00;95743.03;5041525;28;20080;-43
2023/01/08 05:24:45;;;;;;;7.43;3.58;;;;;;;4.79;100.00;95753.13;5044177;28;20092;-42
2023/01/08 05:27:15;;;;;;;5.72;3.10;;;;;;;4.85;100.00;95744.78;5051785;28;20499;-42
2023/01/08 05:29:43;;;;;;;6.50;3.00;;;;;;;4.79;100.00;95754.91;5049736;28;20076;-42
2023/01/08 05:32:15;;;;;;;5.68;3.00;;;;;;;4.69;100.00;95750.44;5045341;28;20079;-42
2023/01/08 05:34:43;;;;;;;4.78;3.40;;;;;;;4.78;100.00;95742.78;5048891;28;20107;-45
2023/01/08 05:37:12;;;;;;;7.07;3.55;;;;;;;4.85;100.00;95738.72;5044812;28;20079;-43
2023/01/08 05:39:40;;;;;;;5.05;3.00;;;;;;;4.81;100.00;95726.88;5046042;28;20076;-46
2023/01/08 05:42:09;;;;;;;6.65;3.30;;;;;;;4.20;100.00;95724.91;5047055;28;20072;-42
2023/01/08 05:44:38;;;;;;;10.93;3.65;;;;;;;4.14;100.00;95707.94;5045927;28;20068;-41
2023/01/08 05:47:07;;;;;;;5.40;3.50;;;;;;;3.99;100.00;95714.38;5028350;28;20534;-42
2023/01/08 05:49:35;;;;;;;7.75;3.92;;;;;;;4.56;100.00;95715.03;5045582;28;20076;-43
2023/01/08 05:52:04;;;;;;;5.75;3.30;;;;;;;4.73;100.00;95717.06;5044125;28;20076;-44
2023/01/08 05:54:33;;;;;;;7.22;3.05;;;;;;;4.81;100.00;95716.44;5048036;28;20084;-42
2023/01/08 05:57:01;;;;;;;5.75;3.30;;;;;;;4.83;100.00;95719.75;5045594;28;20091;-43
2023/01/08 05:59:29;;;;;;;4.05;2.45;;;;;;;4.76;100.00;95728.09;5042166;28;20072;-42
2023/01/08 06:01:59;;;;;;;6.97;3.03;;;;;;;4.74;100.00;95723.94;5042851;28;20084;-43
2023/01/08 06:04:27;;;;;;;5.17;3.40;;;;;;;4.68;100.00;95716.59;5046914;28;20069;-45
2023/01/08 06:06:56;;;;;;;7.65;3.60;;;;;;;4.81;100.00;95717.25;5040602;28;20613;-45
2023/01/08 06:09:24;;;;;;;7.13;3.78;;;;;;;4.56;100.00;95728.06;5047607;28;20473;-43
2023/01/08 06:11:52;;;;;;;5.68;3.63;;;;;;;4.43;100.00;95743.91;5042540;28;20154;-43
2023/01/08 06:14:21;;;;;;;7.07;4.20;;;;;;;4.53;100.00;95744.81;5049197;28;20081;-45
2023/01/08 06:16:49;;;;;;;6.15;3.30;;;;;;;4.54;100.00;95743.84;5041295;28;20076;-42
2023/01/08 06:19:19;;;;;;;6.57;3.33;;;;;;;4.81;100.00;95737.31;5045564;28;20539;-43
2023/01/08 06:21:48;;;;;;;7.00;3.53;;;;;;;4.90;100.00;95740.00;5042891;28;20106;-43
2023/01/08 06:24:16;;;;;;;5.53;3.35;;;;;;;4.88;100.00;95736.69;5046765;28;20076;-45
2023/01/08 06:26:44;;;;;;;4.65;2.67;;;;;;;4.67;100.00;95743.69;5040540;28;20088;-44
2023/01/08 06:29:12;;;;;;;5.25;2.92;;;;;;;4.21;100.00;95750.03;5042311;28;20087;-43
2023/01/08 06:31:41;;;;;;;6.18;3.40;;;;;;;4.23;100.00;95750.72;5044773;28;20077;-42
2023/01/08 06:34:09;;;;;;;5.60;3.42;;;;;;;4.51;100.00;95744.94;5048127;28;20087;-43
2023/01/08 06:36:39;;;;;;;5.78;3.50;;;;;;;4.65;100.00;95743.81;5042023;28;20552;-45
2023/01/08 06:39:08;;;;;;;7.43;3.13;;;;;;;4.94;100.00;95732.75;5043746;28;20091;-46
2023/01/08 06:41:36;;;;;;;4.70;2.92;;;;;;;4.79;100.00;95728.81;5044731;28;20501;-44
2023/01/08 06:44:05;;;;;;;5.30;3.30;;;;;;;4.99;100.00;95728.78;5047929;28;20547;-44
2023/01/08 06:46:37;;;;;;;6.65;3.03;;;;;;;4.93;100.00;95738.94;5045012;28;20088;-41
2023/01/08 06:49:05;;;;;;;9.60;3.50;;;;;;;5.09;100.00;95739.28;5047502;28;20709;-42
2023/01/08 06:51:33;;;;;;;5.85;3.17;;;;;;;5.18;100.00;95741.13;5042256;28;20092;-41
2023/01/08 06:54:03;;;;;;;5.18;3.17;;;;;;;5.26;100.00;95740.47;5048215;28;20086;-41
2023/01/08 06:56:32;;;;;;;6.97;3.17;;;;;;;5.09;100.00;95746.28;5046316;28;20103;-42
2023/01/08 06:59:19;;;;;;;5.38;3.20;;;;;;;4.84;100.00;95747.53;5040812;28;20485;-43
2023/01/08 07:01:48;;;;;;;4.70;3.40;;;;;;;4.79;100.00;95742.69;5045305;28;20114;-45
2023/01/08 07:04:17;;;;;;;5.22;3.25;;;;;;;4.85;100.00;95744.78;5042264;28;20081;-47
2023/01/08 07:06:45;;;;;;;5.05;2.60;;;;;;;4.45;100.00;95761.09;5040069;28;20515;-45
2023/01/08 07:09:15;;;;;;;4.22;3.13;;;;;;;4.56;100.00;95749.78;5048493;28;20547;-45
2023/01/08 07:11:44;;;;;;;6.30;3.90;;;;;;;5.14;100.00;95747.56;5043242;28;20496;-46
2023/01/08 07:14:12;;;;;;;9.15;3.80;;;;;;;4.81;100.00;95750.38;5044102;28;20130;-48
2023/01/08 07:16:40;;;;;;;6.38;3.50;;;;;;;4.62;100.00;95741.47;5049088;28;20306;-44
2023/01/08 07:19:09;;;;;;;5.80;3.35;;;;;;;4.78;100.00;95745.41;5043182;28;20391;-40
2023/01/08 07:21:37;;;;;;;5.32;3.65;;;;;;;5.20;100.00;95754.91;5041258;28;20076;-44
2023/01/08 07:24:06;;;;;;;4.68;3.03;;;;;;;5.43;100.00;95747.72;5044199;28;20068;-43
2023/01/08 07:26:38;;;;;;;6.00;2.95;;;;;;;5.29;100.00;95752.47;5043859;28;20080;-44
2023/01/08 07:29:06;;;;;;;6.15;3.25;;;;;;;5.17;100.00;95742.09;5048174;28;20072;-45
2023/01/08 07:31:35;;;;;;;6.45;3.28;;;;;;;5.51;100.00;95747.09;5046500;28;20084;-45
2023/01/08 07:34:03;;;;;;;5.30;3.33;;;;;;;5.79;100.00;95744.72;5046572;28;20087;-47
2023/01/08 07:36:32;;;;;;;6.28;3.20;;;;;;;5.90;100.00;95752.44;5028626;28;20065;-42
2023/01/08 07:39:00;;;;;;;4.45;2.78;;;;;;;5.66;100.00;95751.00;5045145;28;20525;-44
2023/01/08 07:41:28;;;;;;;7.13;3.40;;;;;;;5.90;100.00;95734.97;5043115;28;20644;-44
2023/01/08 07:43:58;;;;;;;6.45;3.03;;;;;;;5.76;100.00;95730.09;5047849;28;20072;-43
2023/01/08 07:46:26;;;;;;;4.97;2.63;;;;;;;5.84;100.00;95735.50;5049814;28;20096;-42
2023/01/08 07:48:55;;;;;;;8.43;4.38;;;;;;;5.86;100.00;95732.75;5046318;28;20073;-49
2023/01/08 07:51:24;;;;;;;23.15;9.48;;;;;;;5.98;100.00;95723.03;5049659;28;20100;-46
2023/01/08 07:53:54;;;;;;;19.13;7.45;;;;;;;6.00;100.00;95721.13;5041883;28;20476;-44
2023/01/08 07:56:24;;;;;;;7.95;3.42;;;;;;;5.45;100.00;95727.50;5042547;28;20088;-47
2023/01/08 07:58:52;;;;;;;5.63;3.38;;;;;;;5.80;100.00;95728.06;5054213;28;20091;-46
2023/01/08 08:01:22;;;;;;;4.70;2.88;;;;;;;5.45;100.00;95730.13;5043446;28;20076;-42
2023/01/08 08:03:51;;;;;;;;;;;;;;;4.71;100.00;95727.66;5050829;28;20087;-45
2023/01/08 08:06:19;;;;;;;20.58;11.35;;;;;;;4.30;100.00;95738.84;5051819;28;19972;-45
2023/01/08 08:08:47;;;;;;;11.30;5.20;;;;;;;4.88;100.00;95733.25;5025774;28;20142;-45
2023/01/08 08:11:15;;;;;;;14.52;7.05;;;;;;;5.75;100.00;95728.47;5047744;28;20119;-47
2023/01/08 08:13:44;;;;;;;21.45;10.85;;;;;;;6.27;100.00;95720.47;5051732;28;20095;-45
2023/01/08 08:16:13;;;;;;;16.58;9.55;;;;;;;6.54;100.00;95733.72;5041176;28;20537;-43
2023/01/08 08:18:42;;;;;;;4.20;2.47;;;;;;;6.41;100.00;95733.97;5043033;28;20088;-44
2023/01/08 08:21:11;;;;;;;5.15;2.65;;;;;;;6.73;100.00;95721.56;5054242;28;20076;-42
2023/01/08 08:23:39;;;;;;;5.32;2.90;;;;;;;6.80;100.00;95727.91;5038784;28;20528;-43
2023/01/08 08:26:07;;;;;;;4.85;2.90;;;;;;;6.68;100.00;95740.34;5047011;28;20068;-42
2023/01/08 08:28:35;;;;;;;4.72;2.72;;;;;;;7.28;100.00;95729.63;5045603;28;20477;-41
2023/01/08 08:31:04;;;;;;;6.35;3.60;;;;;;;7.58;100.00;95739.06;5049018;28;20084;-46
2023/01/08 08:33:32;;;;;;;5.13;3.17;;;;;;;7.61;100.00;95736.97;5048305;28;20555;-44
2023/01/08 08:36:02;;;;;;;5.57;3.70;;;;;;;7.35;100.00;95746.44;5042844;28;20085;-44
2023/01/08 08:38:30;;;;;;;4.80;3.23;;;;;;;7.30;100.00;95743.44;5047692;28;20085;-43
2023/01/08 08:40:58;;;;;;;5.18;3.15;;;;;;;7.75;100.00;95732.22;5058286;28;20719;-44
2023/01/08 08:43:27;;;;;;;5.35;3.13;;;;;;;8.00;100.00;95733.34;5051117;28;20085;-41
2023/01/08 08:45:55;;;;;;;5.90;3.75;;;;;;;8.06;100.00;95728.31;5052462;28;20080;-43
2023/01/08 08:48:24;;;;;;;5.47;3.17;;;;;;;8.06;100.00;95720.44;5044361;28;20493;-44
2023/01/08 08:50:52;;;;;;;9.65;5.35;;;;;;;8.12;100.00;95724.28;5044608;28;20567;-43
2023/01/08 08:53:22;;;;;;;9.25;4.93;;;;;;;8.02;100.00;95732.22;5043551;28;20528;-50
2023/01/08 08:55:50;;;;;;;19.30;10.67;;;;;;;7.99;100.00;95735.13;5058000;28;20096;-49
2023/01/08 08:58:18;;;;;;;62.22;25.65;;;;;;;8.30;100.00;95730.38;5051596;28;20115;-45
2023/01/08 09:00:47;;;;;;;22.08;11.93;;;;;;;8.12;100.00;95737.41;5046692;28;20096;-43
2023/01/08 09:03:15;;;;;;;21.83;10.52;;;;;;;8.25;100.00;95730.00;5053591;28;20068;-45
2023/01/08 09:05:44;;;;;;;8.20;4.78;;;;;;;8.35;100.00;95724.69;5047689;28;20073;-46
2023/01/08 09:08:12;;;;;;;16.23;7.80;;;;;;;8.50;100.00;95720.59;5045404;28;20503;-44
2023/01/08 09:10:42;;;;;;;23.23;12.02;;;;;;;7.99;100.00;95731.69;5048502;28;20450;-44
2023/01/08 09:13:11;;;;;;;14.48;8.80;;;;;;;8.79;100.00;95719.53;5047308;28;20095;-41
2023/01/08 09:15:39;;;;;;;29.77;16.52;;;;;;;8.87;100.00;95718.75;5049649;28;20091;-46
2023/01/08 09:18:08;;;;;;;21.13;12.75;;;;;;;8.99;100.00;95721.00;5047217;28;20453;-44
2023/01/08 09:20:36;;;;;;;8.25;3.92;;;;;;;8.54;100.00;95729.84;5048179;28;20575;-43
2023/01/08 09:23:05;;;;;;;3.35;1.98;;;;;;;8.89;100.00;95729.97;5049011;28;20072;-42
2023/01/08 09:25:34;;;;;;;6.93;4.25;;;;;;;9.06;100.00;95723.84;5045548;28;20540;-45
2023/01/08 09:28:05;;;;;;;8.75;5.32;;;;;;;8.62;100.00;95736.13;5050028;28;20096;-47
2023/01/08 09:30:33;;;;;;;6.30;3.88;;;;;;;8.94;100.00;95730.31;5048328;28;20088;-45
2023/01/08 09:33:03;;;;;;;6.63;4.05;;;;;;;9.33;100.00;95738.69;5046248;28;20081;-45
2023/01/08 09:35:32;;;;;;;3.73;2.23;;;;;;;9.06;100.00;95739.63;5044546;28;20087;-43
2023/01/08 09:38:00;;;;;;;3.72;2.38;;;;;;;9.29;100.00;95739.97;5048313;28;20084;-49
2023/01/08 09:40:32;;;;;;;3.13;2.20;;;;;;;9.51;100.00;95733.34;5044756;28;20557;-43
2023/01/08 09:43:01;;;;;;;5.30;3.58;;;;;;;9.33;100.00;95730.78;5048709;28;20080;-43
2023/01/08 09:45:32;;;;;;;5.45;3.35;;;;;;;9.46;100.00;95728.56;5044445;28;20118;-46
2023/01/08 09:48:03;;;;;;;8.05;4.25;;;;;;;9.46;100.00;95728.56;5048575;28;20076;-46
2023/01/08 09:50:32;;;;;;;2.30;1.92;;;;;;;9.36;100.00;95719.94;5056465;28;20081;-40
2023/01/08 09:53:00;;;;;;;2.78;1.65;;;;;;;9.31;100.00;95721.38;5050405;28;20053;-44
2023/01/08 09:55:29;;;;;;;3.42;1.70;;;;;;;8.86;100.00;95728.47;5049132;28;20092;-45
2023/01/08 09:57:59;;;;;;;2.85;1.50;;;;;;;9.03;100.00;95732.06;5051258;28;20080;-42
2023/01/08 10:00:33;;;;;;;3.28;1.55;;;;;;;8.88;100.00;95713.38;5058077;28;20083;-43
2023/01/08 10:03:02;;;;;;;2.70;1.80;;;;;;;9.62;100.00;95701.50;5053594;28;20294;-43
2023/01/08 10:05:30;;;;;;;3.85;1.90;;;;;;;9.31;100.00;95693.28;5052459;28;20080;-42
2023/01/08 10:07:59;;;;;;;11.15;8.25;;;;;;;9.36;100.00;95674.38;5054949;28;20612;-44
2023/01/08 10:10:29;;;;;;;9.43;7.13;;;;;;;9.02;100.00;95665.47;5059182;28;20088;-45
2023/01/08 10:12:58;;;;;;;9.45;7.05;;;;;;;8.98;100.00;95674.66;5053935;28;20288;-45
2023/01/08 10:15:26;;;;;;;4.03;2.17;;;;;;;10.22;100.00;95658.41;5049640;28;20084;-44
2023/01/08 10:18:00;;;;;;;4.40;3.33;;;;;;;10.51;100.00;95660.63;5046317;28;20081;-44
2023/01/08 10:20:29;;;;;;;3.08;2.00;;;;;;;10.33;100.00;95671.31;5040370;28;20080;-43
2023/01/08 10:23:09;;;;;;;3.97;2.30;;;;;;;10.88;100.00;95672.50;5046365;28;20092;-41
2023/01/08 10:25:48;;;;;;;6.50;3.83;;;;;;;9.96;100.00;95672.50;5050322;28;20099;-42
2023/01/08 10:28:20;;;;;;;8.55;6.45;;;;;;;10.95;100.00;95668.19;5045183;28;20080;-49
2023/01/08 10:30:50;;;;;;;7.13;4.70;;;;;;;10.56;100.00;95671.47;5047170;28;20080;-42
2023/01/08 10:33:21;;;;;;;4.88;3.13;;;;;;;10.11;100.00;95683.22;5047339;28;20080;-45
2023/01/08 10:35:55;;;;;;;14.20;8.27;;;;;;;10.55;100.00;95669.84;5049153;28;20110;-41
2023/01/08 10:38:30;;;;;;;4.25;2.92;;;;;;;10.25;100.00;95689.69;5049712;28;20087;-43
2023/01/08 10:41:01;;;;;;;3.55;2.35;;;;;;;10.85;100.00;95678.91;5044852;28;20080;-43
2023/01/08 10:43:32;;;;;;;6.53;2.88;;;;;;;11.42;100.00;95667.44;5047187;28;20092;-42
2023/01/08 10:46:01;;;;;;;5.85;3.47;;;;;;;11.15;100.00;95663.41;5049307;28;20092;-45
2023/01/08 10:48:34;;;;;;;4.15;2.88;;;;;;;11.31;100.00;95667.81;5046189;28;20091;-46
2023/01/08 10:51:07;;;;;;;3.78;2.85;;;;;;;11.56;100.00;95661.47;5041764;28;20083;-46
2023/01/08 10:53:35;;;;;;;4.93;2.53;;;;;;;12.16;93.00;95640.75;5043880;28;20080;-45
2023/01/08 10:56:04;;;;;;;3.63;2.63;;;;;;;12.78;83.67;95628.22;5046287;28;20084;-46
2023/01/08 10:58:41;;;;;;;4.18;2.60;;;;;;;12.80;80.98;95631.53;5047146;28;20103;-43
2023/01/08 11:01:11;;;;;;;5.28;3.15;;;;;;;12.99;83.63;95624.06;5044972;28;20076;-47
2023/01/08 11:03:41;;;;;;;6.65;3.67;;;;;;;12.75;81.99;95631.22;5046751;28;20094;-44
2023/01/08 11:06:13;;;;;;;3.97;2.13;;;;;;;12.71;81.15;95637.88;5048075;28;20087;-43
2023/01/08 11:08:50;;;;;;;3.50;2.30;;;;;;;12.65;86.32;95637.75;5047244;28;20083;-44
2023/01/08 11:11:19;;;;;;;5.13;2.90;;;;;;;12.59;83.38;95639.28;5050245;28;20104;-44
2023/01/08 11:13:56;;;;;;;4.47;2.60;;;;;;;12.49;86.23;95649.28;5046562;28;20091;-45
2023/01/08 11:16:31;;;;;;;4.18;2.10;;;;;;;12.06;93.51;95656.81;5044114;28;20085;-44
2023/01/08 11:19:01;;;;;;;5.20;2.88;;;;;;;12.01;92.87;95664.44;5048760;28;20073;-43
2023/01/08 11:21:31;;;;;;;4.20;2.30;;;;;;;12.05;95.47;95657.81;5045537;28;20091;-42
2023/01/08 11:24:09;;;;;;;5.55;3.03;;;;;;;12.14;98.27;95642.72;5046185;28;20072;-45
2023/01/08 11:26:40;;;;;;;8.85;4.20;;;;;;;12.58;92.38;95640.28;5048350;28;20083;-49
2023/01/08 11:29:13;;;;;;;5.15;2.70;;;;;;;12.68;92.02;95646.16;5042715;28;20107;-46
2023/01/08 11:31:44;;;;;;;4.13;2.92;;;;;;;12.76;90.67;95635.50;5042000;28;20088;-47
2023/01/08 11:34:16;;;;;;;4.50;3.22;;;;;;;12.77;91.59;95625.75;5043206;28;20543;-45
2023/01/08 11:36:49;;;;;;;4.10;2.33;;;;;;;12.73;88.82;95604.13;5042351;28;20095;-43
2023/01/08 11:39:17;;;;;;;4.68;2.13;;;;;;;11.26;100.00;95599.69;5044955;28;20449;-47
2023/01/08 11:42:00;;;;;;;3.60;2.20;;;;;;;11.21;100.00;95593.28;5048003;28;20107;-45
2023/01/08 11:44:39;;;;;;;4.35;2.67;;;;;;;11.24;100.00;95582.38;5046108;28;20072;-44